Time;durP1;ratioP1;P1;durP2;ratioP2;P2;SDS_P1;SDS_P2;PMS_P1;PMS_P2;Temp;Humidity;BMP_temperature;BMP_pressure;BME280_temperature;BME280_humidity;BME280_pressure;Samples;Min_cycle;Max_cycle;Signal;HPM_P1;HPM_P2
2023/03/24 00:00:19;;;;;;;15.68;10.65;;;;;;;8.43;100.00;98327.69;5011485;28;20270;-60
2023/03/24 00:02:47;;;;;;;15.27;11.43;;;;;;;8.43;100.00;98348.31;5011423;28;20302;-60
2023/03/24 00:05:18;;;;;;;16.75;12.25;;;;;;;8.55;100.00;98390.56;5011294;28;20292;-60
2023/03/24 00:07:44;;;;;;;16.60;11.98;;;;;;;8.58;100.00;98383.50;5011425;28;20215;-60
2023/03/24 00:10:13;;;;;;;17.55;11.93;;;;;;;8.37;100.00;98351.28;5061297;28;20667;-60
2023/03/24 00:12:41;;;;;;;16.80;12.20;;;;;;;8.57;100.00;98371.50;5070777;28;20200;-60
2023/03/24 00:15:10;;;;;;;15.57;10.85;;;;;;;9.02;100.00;98404.78;5070729;28;20217;-60
2023/03/24 00:17:36;;;;;;;15.32;11.65;;;;;;;8.89;100.00;98378.09;5070718;28;20204;-60
2023/03/24 00:20:06;;;;;;;16.02;11.82;;;;;;;8.69;100.00;98344.97;5070734;28;20173;-60
2023/03/24 00:22:32;;;;;;;10.95;8.75;;;;;;;8.47;100.00;98318.88;5070746;28;20707;-60
2023/03/24 00:24:58;;;;;;;16.58;10.73;;;;;;;8.37;100.00;98310.03;5070652;28;20239;-60
2023/03/24 00:27:23;;;;;;;15.15;11.02;;;;;;;8.92;100.00;98400.31;5054015;28;20280;-60
2023/03/24 00:29:49;;;;;;;15.20;10.48;;;;;;;8.45;100.00;98307.78;5052977;28;20180;-60
2023/03/24 00:32:14;;;;;;;18.00;11.20;;;;;;;8.35;100.00;98305.88;5052953;28;20625;-60
2023/03/24 00:34:42;;;;;;;14.30;10.27;;;;;;;8.63;100.00;98332.44;5052825;28;20565;-60
2023/03/24 00:37:07;;;;;;;13.02;10.80;;;;;;;8.95;100.00;98403.53;5052594;28;20184;-60
2023/03/24 00:39:33;;;;;;;11.73;7.97;;;;;;;8.88;100.00;98397.09;5052809;28;20173;-60
2023/03/24 00:42:00;;;;;;;11.23;8.63;;;;;;;8.96;100.00;98389.69;5052752;28;20276;-60
2023/03/24 00:44:26;;;;;;;14.80;10.18;;;;;;;8.67;100.00;98351.97;5052359;28;20637;-60
2023/03/24 00:46:54;;;;;;;16.05;12.20;;;;;;;8.61;100.00;98347.19;5052686;28;20185;-60
2023/03/24 00:49:41;;;;;;;18.05;12.50;;;;;;;8.91;100.00;98402.06;5052968;28;20674;-60
2023/03/24 00:52:11;;;;;;;18.92;13.73;;;;;;;8.73;100.00;98361.09;5052725;28;20558;-60
2023/03/24 00:54:38;;;;;;;19.10;14.00;;;;;;;8.43;100.00;98317.38;5052574;28;20190;-60
2023/03/24 00:57:05;;;;;;;19.63;14.63;;;;;;;8.48;100.00;98341.16;5052173;28;20193;-60
2023/03/24 00:59:31;;;;;;;21.30;14.55;;;;;;;8.63;100.00;98370.31;5052475;28;20252;-60
2023/03/24 01:01:56;;;;;;;22.42;15.00;;;;;;;8.29;100.00;98312.25;5052510;28;20268;-60
2023/03/24 01:04:26;;;;;;;18.60;13.27;;;;;;;8.17;100.00;98294.09;5052518;28;20217;-60
2023/03/24 01:06:53;;;;;;;19.85;14.45;;;;;;;8.02;100.00;98298.44;5052394;28;20181;-60
2023/03/24 01:09:22;;;;;;;18.70;12.15;;;;;;;8.54;100.00;98392.34;5052376;28;20666;-60
2023/03/24 01:11:47;;;;;;;14.57;9.70;;;;;;;8.50;100.00;98370.22;5052075;28;20185;-60
2023/03/24 01:14:13;;;;;;;8.80;7.53;;;;;;;8.31;100.00;98327.59;5052266;28;20567;-60
2023/03/24 01:16:40;;;;;;;4.72;4.32;;;;;;;8.55;100.00;98378.53;5052252;28;20612;-60
2023/03/24 01:19:08;;;;;;;4.45;4.13;;;;;;;8.23;100.00;98309.22;5052269;28;20174;-60
2023/03/24 01:21:33;;;;;;;8.70;5.18;;;;;;;8.41;100.00;98336.44;5052155;28;20182;-60
2023/03/24 01:24:00;;;;;;;6.05;5.15;;;;;;;8.55;100.00;98369.94;5051923;28;20188;-60
2023/03/24 01:26:26;;;;;;;9.35;6.90;;;;;;;8.40;100.00;98379.44;5052157;28;20173;-60
2023/03/24 01:28:52;;;;;;;13.13;9.02;;;;;;;8.14;100.00;98341.50;5052112;28;20315;-60
2023/03/24 01:31:17;;;;;;;13.98;10.25;;;;;;;8.01;100.00;98332.00;5051822;28;20182;-60
2023/03/24 01:33:43;;;;;;;13.88;10.63;;;;;;;8.02;100.00;98342.22;5052024;28;20696;-60
2023/03/24 01:36:09;;;;;;;15.65;10.52;;;;;;;7.81;100.00;98328.03;5052037;28;20193;-60
2023/03/24 01:38:34;;;;;;;15.50;9.57;;;;;;;8.16;100.00;98367.19;5052046;28;20169;-60
2023/03/24 01:41:00;;;;;;;10.82;8.75;;;;;;;7.96;100.00;98309.09;5051989;28;20174;-60
2023/03/24 01:43:32;;;;;;;9.05;7.78;;;;;;;7.72;100.00;98274.50;5051988;28;20188;-60
2023/03/24 01:46:13;;;;;;;11.15;7.43;;;;;;;8.15;100.00;98334.59;5052025;28;20162;-60
2023/03/24 01:48:44;;;;;;;14.30;8.93;;;;;;;8.23;100.00;98376.22;5051997;28;20172;-60
2023/03/24 01:51:18;;;;;;;8.07;6.93;;;;;;;8.10;100.00;98355.47;5051968;28;20261;-60
2023/03/24 01:53:51;;;;;;;9.02;7.25;;;;;;;7.70;100.00;98263.44;5051859;28;20162;-60
2023/03/24 01:56:17;;;;;;;8.38;6.68;;;;;;;8.21;100.00;98337.66;5052040;28;20201;-60
2023/03/24 01:58:49;;;;;;;7.10;6.40;;;;;;;8.06;100.00;98307.63;5055709;28;20173;-60
2023/03/24 02:01:16;;;;;;;5.43;4.75;;;;;;;7.70;100.00;98262.63;5055915;28;20162;-60
2023/03/24 02:03:43;;;;;;;7.13;4.65;;;;;;;7.59;100.00;98234.94;5055701;28;20177;-60
2023/03/24 02:06:11;;;;;;;5.15;4.22;;;;;;;7.63;100.00;98254.44;5055346;28;20594;-60
2023/03/24 02:08:45;;;;;;;5.82;4.50;;;;;;;7.69;100.00;98248.09;5055651;28;20186;-60
2023/03/24 02:11:11;;;;;;;5.22;4.50;;;;;;;7.78;100.00;98268.97;5055618;28;20166;-60
2023/03/24 02:13:37;;;;;;;5.15;4.40;;;;;;;7.95;100.00;98317.75;5055245;28;20177;-60
2023/03/24 02:16:23;;;;;;;4.75;4.25;;;;;;;7.59;100.00;98259.84;5055554;28;20269;-60
2023/03/24 02:19:13;;;;;;;4.88;4.45;;;;;;;7.91;100.00;98326.56;5055490;28;20173;-60
2023/03/24 02:22:02;;;;;;;4.78;4.03;;;;;;;8.06;100.00;98343.72;5055520;28;20178;-60
2023/03/24 02:24:58;;;;;;;5.40;4.90;;;;;;;7.98;100.00;98335.59;5055454;28;20177;-60
2023/03/24 02:28:02;;;;;;;7.20;4.75;;;;;;;8.04;100.00;98348.09;5055359;28;20220;-60
2023/03/24 02:30:42;;;;;;;6.45;4.82;;;;;;;7.99;100.00;98347.53;5052794;28;20193;-60
2023/03/24 02:33:22;;;;;;;6.25;5.00;;;;;;;8.00;100.00;98361.25;5052906;28;20185;-60
2023/03/24 02:36:25;;;;;;;5.78;5.07;;;;;;;8.02;100.00;98362.00;5012882;28;20636;-60
2023/03/24 02:39:08;;;;;;;8.73;5.80;;;;;;;8.05;100.00;98378.09;5013037;28;20191;-60
2023/03/24 02:42:09;;;;;;;12.05;7.07;;;;;;;7.95;100.00;98366.69;5013017;28;20672;-60
2023/03/24 02:44:45;;;;;;;7.97;6.70;;;;;;;7.71;100.00;98321.78;4935328;29;20229;-60
2023/03/24 02:47:17;;;;;;;8.50;6.63;;;;;;;8.00;100.00;98349.22;4935391;29;20192;-60
2023/03/24 02:49:43;;;;;;;9.13;6.70;;;;;;;8.32;100.00;98386.81;4935351;29;20278;-60
2023/03/24 02:52:23;;;;;;;7.72;6.72;;;;;;;8.43;100.00;98389.56;4935360;29;20265;-60
2023/03/24 02:55:04;;;;;;;9.35;6.30;;;;;;;8.46;100.00;98389.38;4934877;29;20326;-60
2023/03/24 02:57:37;;;;;;;6.25;5.72;;;;;;;8.04;100.00;98309.47;4935291;29;20174;-60
2023/03/24 03:00:17;;;;;;;7.13;5.30;;;;;;;8.59;100.00;98374.84;4935155;29;20684;-60
2023/03/24 03:02:51;;;;;;;6.63;5.63;;;;;;;8.22;100.00;98387.47;4935177;29;20198;-60
2023/03/24 03:05:33;;;;;;;5.55;4.85;;;;;;;7.62;100.00;98301.69;4935161;29;20245;-60
2023/03/24 03:08:02;;;;;;;5.53;4.50;;;;;;;7.90;100.00;98388.47;4953175;28;20193;-60
2023/03/24 03:10:33;;;;;;;5.65;5.00;;;;;;;7.88;100.00;98375.72;4953680;28;20197;-60
2023/03/24 03:13:04;;;;;;;4.65;4.25;;;;;;;7.92;100.00;98369.44;4954151;29;20180;-60
2023/03/24 03:15:38;;;;;;;4.70;4.30;;;;;;;7.81;100.00;98322.88;4971971;28;20223;-60
2023/03/24 03:18:15;;;;;;;4.22;3.83;;;;;;;8.22;100.00;98396.00;4992795;28;20178;-60
2023/03/24 03:20:49;;;;;;;6.10;4.72;;;;;;;7.63;100.00;98323.13;5000946;28;20739;-60
2023/03/24 03:23:22;;;;;;;5.25;4.75;;;;;;;7.79;100.00;98388.25;5032099;28;20170;-60
2023/03/24 03:25:54;;;;;;;5.20;4.65;;;;;;;7.71;100.00;98375.84;5043032;28;20739;-60
2023/03/24 03:28:28;;;;;;;4.80;4.35;;;;;;;7.84;100.00;98379.38;5054227;28;20158;-60
2023/03/24 03:30:58;;;;;;;5.38;4.88;;;;;;;8.10;100.00;98430.19;5054110;28;20170;-60
2023/03/24 03:33:30;;;;;;;5.63;5.13;;;;;;;8.00;100.00;98431.66;5053777;28;20618;-60
2023/03/24 03:36:08;;;;;;;6.18;5.20;;;;;;;7.55;100.00;98431.69;5054024;28;20220;-60
2023/03/24 03:38:33;;;;;;;7.82;4.88;;;;;;;7.53;100.00;98430.13;5053707;28;20180;-60
2023/03/24 03:41:02;;;;;;;6.90;5.65;;;;;;;7.14;100.00;98363.69;5053693;28;20570;-60
2023/03/24 03:43:30;;;;;;;7.05;6.18;;;;;;;7.16;100.00;98355.91;5053913;28;20264;-60
2023/03/24 03:45:56;;;;;;;5.15;4.75;;;;;;;7.24;100.00;98344.25;5053883;28;20181;-60
2023/03/24 03:48:25;;;;;;;5.15;4.63;;;;;;;7.17;100.00;98313.81;5053823;28;20203;-60
2023/03/24 03:50:51;;;;;;;4.35;3.95;;;;;;;7.31;100.00;98306.97;5053814;28;20202;-60
2023/03/24 03:53:20;;;;;;;3.67;3.38;;;;;;;7.09;100.00;98260.22;5031433;28;20664;-60
2023/03/24 03:55:46;;;;;;;4.72;4.22;;;;;;;7.62;100.00;98335.16;5031074;28;20234;-60
2023/03/24 03:58:11;;;;;;;5.40;4.10;;;;;;;7.60;100.00;98306.13;5031318;28;20193;-60
2023/03/24 04:00:38;;;;;;;4.38;4.00;;;;;;;7.51;100.00;98265.44;5031330;28;20720;-60
2023/03/24 04:03:21;;;;;;;4.47;4.07;;;;;;;7.89;100.00;98314.69;5031275;28;20305;-60
2023/03/24 04:06:01;;;;;;;8.20;4.55;;;;;;;7.82;100.00;98319.38;5031329;28;20193;-60
2023/03/24 04:08:26;;;;;;;7.28;4.63;;;;;;;7.83;100.00;98305.59;5031204;28;20163;-59
2023/03/24 04:11:26;;;;;;;4.32;3.92;;;;;;;7.83;100.00;98318.47;5031058;28;20552;-59
2023/03/24 04:14:30;;;;;;;4.43;3.95;;;;;;;7.89;100.00;98322.44;5011106;28;20191;-59
2023/03/24 04:17:24;;;;;;;4.68;3.83;;;;;;;7.72;100.00;98318.28;4952820;29;20232;-59
2023/03/24 04:20:17;;;;;;;8.80;3.85;;;;;;;7.77;100.00;98342.03;4947445;28;20691;-59
2023/03/24 04:23:08;;;;;;;4.22;3.83;;;;;;;7.77;100.00;98342.03;4952813;29;20184;-59
2023/03/24 04:25:41;;;;;;;4.30;3.95;;;;;;;7.75;100.00;98338.69;4952763;29;20193;-59
2023/03/24 04:28:15;;;;;;;5.30;3.40;;;;;;;7.69;100.00;98349.34;4952682;29;20181;-59
2023/03/24 04:30:46;;;;;;;5.55;3.22;;;;;;;7.69;100.00;98341.63;4961787;28;20192;-59
2023/03/24 04:33:21;;;;;;;4.22;3.83;;;;;;;7.21;100.00;98251.78;4971921;28;20593;-59
2023/03/24 04:36:17;;;;;;;4.78;4.13;;;;;;;7.44;100.00;98297.63;4971865;28;20721;-59
2023/03/24 04:38:52;;;;;;;4.68;3.53;;;;;;;7.42;100.00;98283.19;4933241;29;20194;-59
2023/03/24 04:41:19;;;;;;;5.82;4.20;;;;;;;7.83;100.00;98340.81;4933399;29;20710;-59
2023/03/24 04:43:47;;;;;;;4.45;3.58;;;;;;;7.99;100.00;98357.84;4933210;29;20623;-59
2023/03/24 04:46:16;;;;;;;3.92;3.63;;;;;;;7.57;100.00;98298.56;4933272;29;20177;-59
2023/03/24 04:48:47;;;;;;;3.95;3.63;;;;;;;7.92;100.00;98345.44;4933192;29;20244;-59
2023/03/24 04:51:14;;;;;;;4.10;3.70;;;;;;;8.03;100.00;98359.34;4969097;28;20199;-59
2023/03/24 04:53:39;;;;;;;4.15;3.75;;;;;;;7.57;100.00;98277.97;4990873;28;20194;-59
2023/03/24 04:56:26;;;;;;;4.13;3.83;;;;;;;8.22;100.00;98380.53;4990837;28;20589;-59
2023/03/24 04:58:51;;;;;;;3.58;3.25;;;;;;;7.70;99.76;98284.03;4991043;28;20176;-59
2023/03/24 05:01:20;;;;;;;4.20;3.80;;;;;;;7.80;98.53;98286.94;4990927;28;20191;-59
2023/03/24 05:03:46;;;;;;;4.50;4.03;;;;;;;8.28;100.00;98387.09;4990837;28;20192;-60
2023/03/24 05:06:11;;;;;;;4.63;4.20;;;;;;;7.75;100.00;98291.53;4951995;29;20192;-59
2023/03/24 05:08:38;;;;;;;5.05;4.50;;;;;;;8.07;99.70;98318.75;4952092;29;20200;-59
2023/03/24 05:11:03;;;;;;;5.22;4.70;;;;;;;7.84;97.51;98284.06;4952023;29;20196;-59
2023/03/24 05:13:29;;;;;;;4.32;3.92;;;;;;;8.19;96.92;98341.22;4951989;29;20193;-59
2023/03/24 05:15:55;;;;;;;5.03;4.53;;;;;;;8.15;96.25;98314.78;4984309;28;20298;-59
2023/03/24 05:18:20;;;;;;;4.97;4.47;;;;;;;8.35;95.44;98329.09;5010253;28;20187;-59
2023/03/24 05:20:46;;;;;;;4.53;3.83;;;;;;;8.72;94.46;98370.59;5010184;28;20708;-59
2023/03/24 05:23:11;;;;;;;4.65;3.50;;;;;;;8.28;92.77;98299.47;5010203;28;20179;-59
2023/03/24 05:25:36;;;;;;;3.55;3.22;;;;;;;8.31;92.90;98284.63;5010207;28;20338;-59
2023/03/24 05:28:02;;;;;;;3.88;3.60;;;;;;;8.71;92.64;98344.88;5010161;28;20262;-59
2023/03/24 05:30:27;;;;;;;4.53;3.58;;;;;;;9.04;92.65;98395.19;5010125;28;20653;-59
2023/03/24 05:32:53;;;;;;;4.88;3.33;;;;;;;8.52;91.64;98306.53;5009369;28;20191;-59
2023/03/24 05:35:18;;;;;;;5.10;3.60;;;;;;;9.15;92.02;98400.50;5010080;28;20230;-59
2023/03/24 05:37:44;;;;;;;3.67;3.38;;;;;;;8.97;90.37;98359.56;5040694;28;20196;-59
2023/03/24 05:40:10;;;;;;;4.35;3.42;;;;;;;9.31;88.75;98411.53;5051697;28;20188;-59
2023/03/24 05:42:35;;;;;;;6.18;4.03;;;;;;;9.32;88.73;98407.22;5052039;28;20664;-59
2023/03/24 05:45:01;;;;;;;3.60;3.30;;;;;;;9.35;88.28;98413.00;5051690;28;20335;-59
2023/03/24 05:47:26;;;;;;;3.50;3.20;;;;;;;9.18;87.40;98377.09;5051945;28;20170;-59
2023/03/24 05:49:52;;;;;;;3.92;3.63;;;;;;;9.45;87.37;98419.25;5051948;28;20174;-59
2023/03/24 05:52:19;;;;;;;3.35;3.15;;;;;;;9.15;87.40;98356.63;5051902;28;20178;-59
2023/03/24 05:54:45;;;;;;;5.05;2.95;;;;;;;9.15;86.96;98358.41;5051714;28;20232;-59
2023/03/24 05:57:14;;;;;;;3.67;3.35;;;;;;;9.40;87.10;98382.56;5051846;28;20221;-59
2023/03/24 05:59:40;;;;;;;3.65;3.35;;;;;;;9.36;86.01;98357.84;5051835;28;20268;-59
2023/03/24 06:02:06;;;;;;;3.60;3.30;;;;;;;9.66;85.12;98392.03;5051838;28;20242;-59
2023/03/24 06:04:31;;;;;;;3.70;3.40;;;;;;;9.93;85.54;98441.91;5051781;28;20613;-59
2023/03/24 06:07:01;;;;;;;3.50;3.25;;;;;;;9.66;85.99;98396.38;5051787;28;20182;-60
2023/03/24 06:09:31;;;;;;;3.75;3.45;;;;;;;9.73;86.46;98425.13;5051700;28;20174;-59
2023/03/24 06:11:57;;;;;;;3.50;3.20;;;;;;;9.20;86.64;98341.69;5052040;28;20180;-59
2023/03/24 06:14:23;;;;;;;3.78;3.47;;;;;;;9.51;87.31;98393.03;5051643;28;20206;-59
2023/03/24 06:16:49;;;;;;;3.58;3.28;;;;;;;9.56;86.86;98374.66;5051455;28;20554;-60
2023/03/24 06:19:15;;;;;;;4.07;3.67;;;;;;;9.65;87.11;98411.03;5051661;28;20184;-60
2023/03/24 06:21:40;;;;;;;4.47;3.80;;;;;;;9.68;88.46;98442.66;5051556;28;20729;-61
2023/03/24 06:24:06;;;;;;;3.58;3.28;;;;;;;9.40;87.83;98359.31;5051606;28;20174;-60
2023/03/24 06:26:32;;;;;;;4.68;3.53;;;;;;;9.43;86.68;98335.88;5051604;28;20570;-60
2023/03/24 06:28:58;;;;;;;4.30;3.90;;;;;;;9.85;86.79;98364.88;5051602;28;20185;-60
2023/03/24 06:31:26;;;;;;;4.63;4.10;;;;;;;10.42;85.83;98404.13;5051215;28;20678;-60
2023/03/24 06:33:51;;;;;;;8.38;6.00;;;;;;;10.86;86.83;98435.56;5050916;28;20182;-61
2023/03/24 06:36:17;;;;;;;17.05;7.60;;;;;;;10.84;87.33;98401.16;5051309;28;20190;-60
2023/03/24 06:38:44;;;;;;;11.40;8.85;;;;;;;10.86;87.95;98369.06;5051264;28;20170;-60
2023/03/24 06:41:10;;;;;;;13.48;8.65;;;;;;;11.15;89.04;98395.50;5051316;28;20186;-60
2023/03/24 06:43:36;;;;;;;7.13;5.35;;;;;;;11.61;85.14;98453.50;5053033;28;20199;-60
2023/03/24 06:46:01;;;;;;;3.78;3.47;;;;;;;11.39;79.43;98422.25;5054850;28;20646;-60
2023/03/24 06:48:27;;;;;;;3.65;3.35;;;;;;;11.47;78.95;98428.53;5052131;28;20189;-60
2023/03/24 06:50:53;;;;;;;3.78;3.47;;;;;;;11.56;77.80;98447.78;5052208;28;20197;-60
2023/03/24 06:53:20;;;;;;;3.83;3.53;;;;;;;11.50;78.39;98417.13;5052186;28;20660;-60
2023/03/24 06:55:47;;;;;;;4.55;4.13;;;;;;;11.66;78.12;98428.06;5052241;28;20217;-60
2023/03/24 06:58:13;;;;;;;5.80;4.00;;;;;;;11.86;77.42;98445.59;5052351;28;20250;-60
2023/03/24 07:00:40;;;;;;;4.57;3.42;;;;;;;11.47;76.36;98375.88;5052391;28;20273;-60
2023/03/24 07:03:06;;;;;;;4.43;4.00;;;;;;;11.71;76.16;98411.25;5052178;28;20240;-60
2023/03/24 07:05:37;;;;;;;3.92;3.55;;;;;;;11.99;76.20;98442.00;5051621;28;20182;-60
2023/03/24 07:08:02;;;;;;;6.70;5.63;;;;;;;12.07;79.96;98436.25;5052143;28;20182;-60
2023/03/24 07:10:28;;;;;;;7.72;6.90;;;;;;;12.16;84.39;98443.31;5052184;28;20192;-60
2023/03/24 07:12:53;;;;;;;25.73;15.98;;;;;;;11.52;89.38;98378.97;5052116;28;20636;-60
2023/03/24 07:15:18;;;;;;;17.73;12.05;;;;;;;11.62;90.26;98383.41;5052138;28;20695;-60
2023/03/24 07:17:44;;;;;;;14.18;9.50;;;;;;;11.73;91.31;98403.38;5052009;28;20178;-60
2023/03/24 07:20:10;;;;;;;14.13;8.55;;;;;;;11.77;90.34;98371.91;5053677;28;20185;-60
2023/03/24 07:22:35;;;;;;;11.05;8.85;;;;;;;12.13;90.00;98407.25;5054185;28;20174;-60
2023/03/24 07:25:03;;;;;;;8.98;7.53;;;;;;;11.67;90.83;98377.91;5054031;28;20264;-60
2023/03/24 07:27:32;;;;;;;11.35;8.52;;;;;;;12.26;90.47;98450.31;5054159;28;20173;-60
2023/03/24 07:29:58;;;;;;;10.55;8.05;;;;;;;12.46;88.96;98443.63;5054199;28;20178;-60
2023/03/24 07:32:25;;;;;;;9.45;7.60;;;;;;;12.58;87.48;98440.94;5054157;28;20205;-61
2023/03/24 07:34:50;;;;;;;10.20;8.55;;;;;;;12.14;87.56;98372.59;5053709;28;20292;-60
2023/03/24 07:37:15;;;;;;;10.77;8.82;;;;;;;12.77;87.04;98443.78;5054108;28;20204;-60
2023/03/24 07:39:41;;;;;;;11.90;9.20;;;;;;;12.66;86.44;98402.22;5053987;28;20733;-60
2023/03/24 07:42:06;;;;;;;10.45;9.10;;;;;;;12.72;85.06;98362.81;5053776;28;20640;-60
2023/03/24 07:44:32;;;;;;;11.73;9.10;;;;;;;13.39;83.36;98444.94;5052591;28;20421;-61
2023/03/24 07:46:57;;;;;;;9.63;8.52;;;;;;;13.13;82.29;98364.81;5052741;28;20178;-60
2023/03/24 07:49:23;;;;;;;9.98;8.63;;;;;;;13.69;81.01;98441.66;5053527;28;20248;-60
2023/03/24 07:51:48;;;;;;;12.52;9.25;;;;;;;13.62;80.82;98417.09;5053787;28;20261;-61
2023/03/24 07:54:14;;;;;;;12.40;8.57;;;;;;;13.67;80.59;98412.34;5052898;28;20582;-60
2023/03/24 07:56:40;;;;;;;11.02;8.65;;;;;;;13.96;80.27;98442.88;5053664;28;20193;-60
2023/03/24 07:59:08;;;;;;;13.02;9.15;;;;;;;13.96;80.18;98436.81;5053371;28;20657;-60
2023/03/24 08:01:35;;;;;;;11.32;9.15;;;;;;;13.65;80.23;98367.47;5053555;28;20178;-60
2023/03/24 08:04:01;;;;;;;10.70;9.10;;;;;;;13.63;79.86;98380.56;5053525;28;20170;-60
2023/03/24 08:06:28;;;;;;;10.45;9.13;;;;;;;14.02;80.16;98420.72;5053785;28;20185;-61
2023/03/24 08:08:54;;;;;;;12.98;9.00;;;;;;;14.11;79.94;98438.19;5053467;28;20178;-61
2023/03/24 08:11:19;;;;;;;10.55;8.93;;;;;;;13.64;80.08;98358.03;5053424;28;20630;-61
2023/03/24 08:13:45;;;;;;;13.63;9.73;;;;;;;14.21;80.39;98436.47;5053288;28;20184;-61
2023/03/24 08:16:10;;;;;;;13.80;9.95;;;;;;;14.07;79.19;98382.13;5053301;28;20169;-61
2023/03/24 08:18:37;;;;;;;10.95;9.45;;;;;;;14.03;78.79;98365.13;5053306;28;20197;-60
2023/03/24 08:21:03;;;;;;;11.98;9.68;;;;;;;14.40;78.75;98408.00;5053152;28;20220;-60
2023/03/24 08:23:29;;;;;;;11.50;10.10;;;;;;;14.62;78.74;98420.81;5053220;28;20224;-60
2023/03/24 08:25:55;;;;;;;12.43;10.65;;;;;;;14.48;77.76;98382.13;5052855;28;20664;-61
2023/03/24 08:28:20;;;;;;;15.88;10.38;;;;;;;14.52;78.45;98428.59;5053117;28;20173;-60
2023/03/24 08:30:46;;;;;;;12.85;10.73;;;;;;;14.24;79.83;98423.22;5053300;28;20166;-60
2023/03/24 08:33:13;;;;;;;13.48;10.10;;;;;;;14.11;80.36;98405.16;5052995;28;20280;-60
2023/03/24 08:35:39;;;;;;;13.55;10.45;;;;;;;14.30;79.47;98417.50;5052939;28;20201;-60
2023/03/24 08:38:06;;;;;;;15.20;10.68;;;;;;;13.98;80.48;98419.31;5052936;28;20174;-60
2023/03/24 08:40:33;;;;;;;13.68;10.25;;;;;;;13.84;80.68;98372.81;5052830;28;20191;-60
2023/03/24 08:43:01;;;;;;;13.40;10.90;;;;;;;13.95;80.35;98364.94;5052821;28;20177;-60
2023/03/24 08:45:29;;;;;;;13.75;10.73;;;;;;;13.95;80.86;98362.34;5052754;28;20169;-60
2023/03/24 08:47:57;;;;;;;14.32;11.48;;;;;;;14.44;81.36;98420.63;5070191;28;20630;-60
2023/03/24 08:50:26;;;;;;;11.98;10.48;;;;;;;14.49;79.85;98394.19;5070212;28;20185;-60
2023/03/24 08:52:52;;;;;;;14.30;10.82;;;;;;;14.66;78.94;98398.78;5070251;28;20185;-60
2023/03/24 08:55:19;;;;;;;12.45;10.52;;;;;;;14.81;78.54;98400.09;5069970;28;20758;-60
2023/03/24 08:57:45;;;;;;;17.75;11.50;;;;;;;15.02;77.73;98414.72;5070166;28;20275;-60
2023/03/24 09:00:15;;;;;;;11.90;10.57;;;;;;;14.86;77.37;98370.06;5070114;28;20173;-60
2023/03/24 09:02:45;;;;;;;13.52;10.90;;;;;;;14.81;76.55;98337.59;5070050;28;20342;-60
2023/03/24 09:05:12;;;;;;;12.18;10.40;;;;;;;14.81;76.58;98332.38;5070135;28;20194;-60
2023/03/24 09:07:38;;;;;;;14.02;10.52;;;;;;;15.02;77.82;98399.06;5069140;28;20221;-61
2023/03/24 09:10:08;;;;;;;13.27;11.45;;;;;;;15.04;76.94;98372.88;5070021;28;20665;-60
2023/03/24 09:12:35;;;;;;;15.45;12.43;;;;;;;15.18;76.53;98362.06;5069984;28;20185;-61
2023/03/24 09:15:00;;;;;;;18.02;12.73;;;;;;;15.53;75.23;98401.53;5069833;28;20804;-61
2023/03/24 09:17:25;;;;;;;17.40;12.30;;;;;;;15.49;75.74;98390.56;5069934;28;20257;-59
2023/03/24 09:19:51;;;;;;;15.38;11.38;;;;;;;15.55;74.88;98394.38;5053813;28;20186;-61
2023/03/24 09:22:16;;;;;;;13.38;11.23;;;;;;;15.21;74.40;98322.72;5052230;28;20261;-61
2023/03/24 09:24:43;;;;;;;13.02;11.32;;;;;;;15.34;73.60;98325.91;5052147;28;20178;-59
2023/03/24 09:27:09;;;;;;;14.35;10.88;;;;;;;15.50;72.95;98349.63;5052122;28;20262;-61
2023/03/24 09:29:34;;;;;;;11.73;10.27;;;;;;;15.83;72.22;98388.34;5052391;28;20169;-59
2023/03/24 09:32:00;;;;;;;11.65;10.43;;;;;;;15.53;70.79;98318.91;5052141;28;20698;-59
2023/03/24 09:34:26;;;;;;;16.50;10.63;;;;;;;16.06;71.47;98389.72;5052016;28;20565;-59
2023/03/24 09:36:51;;;;;;;11.90;9.95;;;;;;;15.84;71.82;98343.88;5052369;28;20184;-59
2023/03/24 09:39:16;;;;;;;15.15;12.23;;;;;;;16.31;71.55;98399.56;5052040;28;20185;-59
2023/03/24 09:41:47;;;;;;;13.35;11.13;;;;;;;15.97;71.63;98320.09;5051758;28;20195;-59
2023/03/24 09:44:35;;;;;;;14.10;11.30;;;;;;;16.51;70.94;98401.19;5052038;28;20628;-59
2023/03/24 09:47:11;;;;;;;12.10;10.25;;;;;;;16.48;70.77;98393.63;5051774;28;20532;-59
2023/03/24 09:49:39;;;;;;;12.85;10.63;;;;;;;16.10;70.02;98318.00;5052020;28;20173;-61
2023/03/24 09:52:09;;;;;;;13.13;11.45;;;;;;;16.12;70.21;98342.16;5051980;28;20235;-60
2023/03/24 09:54:41;;;;;;;16.50;13.55;;;;;;;16.45;70.65;98396.53;5051920;28;20196;-60
2023/03/24 09:57:20;;;;;;;13.02;11.63;;;;;;;16.28;70.03;98338.00;5052070;28;20647;-60
2023/03/24 09:59:46;;;;;;;13.43;10.27;;;;;;;16.40;70.31;98341.28;5051908;28;20165;-60
2023/03/24 10:02:15;;;;;;;14.23;10.68;;;;;;;16.60;69.85;98358.53;5051783;28;20184;-60
2023/03/24 10:04:41;;;;;;;12.75;10.18;;;;;;;16.71;69.01;98371.41;5051763;28;20231;-60
2023/03/24 10:07:23;;;;;;;17.02;11.20;;;;;;;16.43;68.17;98309.66;5051711;28;20197;-60
2023/03/24 10:09:56;;;;;;;16.23;10.77;;;;;;;16.50;68.68;98300.31;5051828;28;20164;-60
2023/03/24 10:12:30;;;;;;;12.75;10.07;;;;;;;17.03;68.81;98363.97;5051852;28;20665;-60
2023/03/24 10:15:14;;;;;;;12.02;10.65;;;;;;;17.14;67.27;98374.25;5051710;28;20197;-60
2023/03/24 10:17:44;;;;;;;12.20;10.30;;;;;;;16.84;66.22;98290.91;5069625;28;20654;-60
2023/03/24 10:20:36;;;;;;;12.48;10.43;;;;;;;17.28;66.18;98347.59;5073144;28;20234;-60
2023/03/24 10:23:23;;;;;;;12.05;10.43;;;;;;;17.40;66.53;98362.13;5073109;28;20208;-60
2023/03/24 10:26:20;;;;;;;14.88;11.00;;;;;;;17.51;67.07;98354.06;5073057;28;20242;-60
2023/03/24 10:29:10;;;;;;;14.27;11.10;;;;;;;17.31;67.42;98345.50;5073043;28;20176;-61
2023/03/24 10:31:37;;;;;;;12.07;10.48;;;;;;;16.96;68.12;98297.59;5092978;28;20198;-60
2023/03/24 10:34:03;;;;;;;11.52;10.32;;;;;;;17.16;67.45;98296.47;5093002;28;20303;-60
2023/03/24 10:36:29;;;;;;;11.82;9.98;;;;;;;17.55;66.98;98330.03;5072630;28;20617;-60
2023/03/24 10:38:55;;;;;;;13.95;11.40;;;;;;;17.40;66.59;98265.34;5072752;28;20216;-60
2023/03/24 10:41:26;;;;;;;11.52;10.15;;;;;;;17.53;66.05;98276.22;5072899;28;20685;-60
2023/03/24 10:43:55;;;;;;;10.25;9.20;;;;;;;17.90;66.02;98303.03;5072706;28;20192;-60
2023/03/24 10:46:24;;;;;;;17.77;13.43;;;;;;;17.83;63.90;98267.97;5072606;28;20188;-60
2023/03/24 10:48:53;;;;;;;7.78;7.03;;;;;;;17.96;60.86;98265.75;5061305;28;20598;-60
2023/03/24 10:51:30;;;;;;;8.43;6.78;;;;;;;18.48;59.25;98331.06;5052531;28;20243;-60
2023/03/24 10:54:19;;;;;;;8.50;6.10;;;;;;;18.52;59.13;98334.19;5052514;28;20252;-60
2023/03/24 10:56:49;;;;;;;6.55;5.60;;;;;;;18.65;59.40;98334.59;5052311;28;20243;-60
2023/03/24 10:59:26;;;;;;;7.88;6.93;;;;;;;18.69;59.57;98304.47;5052226;28;20620;-60
2023/03/24 11:02:08;;;;;;;7.03;6.32;;;;;;;18.96;57.20;98294.59;5048485;28;20189;-60
2023/03/24 11:04:37;;;;;;;9.98;6.35;;;;;;;19.44;55.58;98317.47;5032762;28;20317;-61
2023/03/24 11:07:19;;;;;;;7.70;5.80;;;;;;;19.11;55.85;98244.94;5038751;28;20189;-61
2023/03/24 11:10:08;;;;;;;7.35;6.30;;;;;;;19.70;56.14;98310.28;5052284;28;20177;-61
2023/03/24 11:12:36;;;;;;;8.75;6.28;;;;;;;19.77;54.60;98308.63;5012478;28;20193;-61
2023/03/24 11:15:17;;;;;;;7.60;6.68;;;;;;;19.01;56.53;98225.91;5012349;28;20775;-61
2023/03/24 11:17:46;;;;;;;9.50;6.40;;;;;;;19.12;56.40;98212.47;5012442;28;20201;-61
2023/03/24 11:20:34;;;;;;;6.38;5.78;;;;;;;19.17;55.67;98215.44;5012346;28;20241;-61
2023/03/24 11:23:02;;;;;;;7.68;6.85;;;;;;;19.82;56.22;98286.13;5012295;28;20680;-61
2023/03/24 11:25:30;;;;;;;7.60;6.93;;;;;;;19.91;55.35;98253.66;5012231;28;20291;-61
2023/03/24 11:28:01;;;;;;;7.97;7.18;;;;;;;19.98;55.15;98228.34;5012183;28;20209;-61
2023/03/24 11:30:34;;;;;;;6.90;6.13;;;;;;;19.87;54.36;98199.00;5022813;28;20185;-61
2023/03/24 11:33:02;;;;;;;7.70;6.90;;;;;;;20.32;54.98;98251.75;5031950;28;20297;-61
2023/03/24 11:35:30;;;;;;;8.13;7.32;;;;;;;19.97;55.94;98195.19;5031802;28;20198;-61
2023/03/24 11:37:55;;;;;;;8.30;6.40;;;;;;;19.79;55.76;98184.09;5031787;28;20198;-61
2023/03/24 11:40:24;;;;;;;7.07;6.38;;;;;;;20.03;56.11;98215.53;5031790;28;20176;-61
2023/03/24 11:42:53;;;;;;;8.45;6.20;;;;;;;20.53;55.70;98257.25;5036644;28;20281;-61